createdAt,value
2018-12-01T00:00:24.832Z,54.03
2018-12-01T00:02:52.901Z,50.75
2018-12-01T00:05:40.747Z,52.40
2018-12-01T00:08:09.056Z,50.33
2018-12-01T00:10:37.390Z,47.73
2018-12-01T00:13:06.414Z,46.00
2018-12-01T00:15:34.669Z,48.10
2018-12-01T00:18:02.706Z,48.73
2018-12-01T00:20:34.851Z,51.70
2018-12-01T00:23:03.218Z,47.93
2018-12-01T00:25:31.169Z,50.25
2018-12-01T00:28:00.647Z,49.73
2018-12-01T00:30:28.856Z,47.48
2018-12-01T00:32:57.059Z,47.17
2018-12-01T00:35:25.395Z,43.45
2018-12-01T00:37:53.634Z,42.00
2018-12-01T00:40:21.859Z,43.25
2018-12-01T00:42:50.236Z,44.27
2018-12-01T00:45:19.335Z,43.70
2018-12-01T00:47:48.553Z,42.65
2018-12-01T00:50:19.283Z,41.68
2018-12-01T00:52:48.259Z,40.23
2018-12-01T00:55:17.253Z,40.20
2018-12-01T00:57:45.184Z,38.30
2018-12-01T01:00:21.299Z,38.85
2018-12-01T01:02:58.560Z,39.08
2018-12-01T01:05:29.436Z,43.63
2018-12-01T01:07:58.323Z,39.85
2018-12-01T01:10:27.717Z,38.13
2018-12-01T01:12:55.684Z,40.10
2018-12-01T01:15:23.736Z,38.67
2018-12-01T01:17:51.905Z,40.17
2018-12-01T01:20:20.905Z,43.35
2018-12-01T01:22:49.540Z,39.42
2018-12-01T01:25:17.504Z,43.55
2018-12-01T01:27:45.834Z,43.17
2018-12-01T01:30:21.994Z,42.20
2018-12-01T01:32:52.275Z,43.25
2018-12-01T01:35:20.243Z,43.20
2018-12-01T01:37:48.224Z,41.53
2018-12-01T01:40:17.084Z,42.43
2018-12-01T01:42:45.207Z,42.95
2018-12-01T01:45:17.535Z,40.00
2018-12-01T01:47:45.765Z,41.08
2018-12-01T01:50:17.575Z,39.83
2018-12-01T01:52:45.625Z,37.23
2018-12-01T01:55:13.659Z,39.83
2018-12-01T01:57:41.671Z,36.80
2018-12-01T02:00:13.196Z,40.60
2018-12-01T02:02:47.539Z,39.40
2018-12-01T02:05:16.548Z,40.30
2018-12-01T02:07:44.498Z,40.12
2018-12-01T02:10:14.313Z,38.88
2018-12-01T02:12:43.159Z,38.63
2018-12-01T02:15:12.593Z,41.77
2018-12-01T02:17:40.836Z,38.10
2018-12-01T02:20:15.263Z,37.78
2018-12-01T02:22:43.232Z,41.55
2018-12-01T02:25:12.317Z,42.62
2018-12-01T02:27:40.304Z,47.35
2018-12-01T02:30:09.799Z,45.40
2018-12-01T02:32:38.111Z,47.95
2018-12-01T02:35:08.634Z,47.35
2018-12-01T02:37:36.611Z,50.35
2018-12-01T02:40:06.975Z,51.90
2018-12-01T02:42:35.068Z,51.73
2018-12-01T02:45:13.982Z,57.15
2018-12-01T02:47:41.968Z,60.17
2018-12-01T02:50:12.899Z,59.13
2018-12-01T02:52:40.966Z,61.98
2018-12-01T02:55:09.042Z,56.02
2018-12-01T02:57:36.988Z,59.08
2018-12-01T03:00:07.873Z,55.73
2018-12-01T03:02:35.825Z,52.30
2018-12-01T03:05:04.263Z,52.43
2018-12-01T03:07:32.289Z,49.63
2018-12-01T03:10:00.219Z,50.63
2018-12-01T03:12:29.340Z,46.75
2018-12-01T03:14:57.416Z,48.73
2018-12-01T03:17:25.359Z,47.27
2018-12-01T03:19:53.332Z,47.58
2018-12-01T03:22:21.411Z,45.15
2018-12-01T03:24:49.699Z,45.98
2018-12-01T03:27:17.758Z,46.23
2018-12-01T03:29:45.791Z,46.55
2018-12-01T03:32:13.738Z,44.30
2018-12-01T03:34:41.931Z,45.12
2018-12-01T03:37:10.275Z,49.10
2018-12-01T03:39:38.207Z,43.20
2018-12-01T03:42:06.440Z,45.28
2018-12-01T03:44:35.495Z,44.53
2018-12-01T03:47:03.511Z,43.55
2018-12-01T03:49:31.714Z,43.80
2018-12-01T03:51:59.634Z,45.80
2018-12-01T03:54:27.568Z,42.35
2018-12-01T03:56:55.505Z,42.45
2018-12-01T03:59:23.484Z,46.53
2018-12-01T04:01:51.472Z,46.55
2018-12-01T04:04:19.386Z,47.03
2018-12-01T04:06:48.706Z,45.38
2018-12-01T04:09:21.034Z,43.95
2018-12-01T04:11:49.035Z,46.95
2018-12-01T04:14:17.329Z,49.15
2018-12-01T04:16:45.220Z,49.65
2018-12-01T04:19:14.188Z,50.63
2018-12-01T04:21:42.483Z,51.25
2018-12-01T04:24:10.460Z,47.40
2018-12-01T04:26:38.672Z,49.77
2018-12-01T04:29:06.613Z,51.13
2018-12-01T04:31:34.547Z,49.75
2018-12-01T04:34:03.075Z,53.75
2018-12-01T04:36:31.087Z,57.00
2018-12-01T04:39:00.098Z,56.05
2018-12-01T04:41:28.262Z,54.38
2018-12-01T04:43:56.199Z,52.60
2018-12-01T04:46:24.515Z,51.88
2018-12-01T04:48:52.664Z,51.25
2018-12-01T04:51:20.604Z,52.33
2018-12-01T04:53:48.532Z,49.65
2018-12-01T04:56:16.508Z,49.58
2018-12-01T04:58:44.443Z,52.58
2018-12-01T05:01:12.480Z,48.45
2018-12-01T05:03:40.439Z,49.95
2018-12-01T05:06:08.399Z,48.50
2018-12-01T05:08:36.413Z,48.23
2018-12-01T05:11:04.763Z,48.80
2018-12-01T05:13:32.716Z,45.58
2018-12-01T05:16:00.659Z,49.75
2018-12-01T05:18:28.703Z,48.10
2018-12-01T05:20:57.026Z,47.05
2018-12-01T05:23:25.236Z,48.60
2018-12-01T05:25:53.560Z,48.75
2018-12-01T05:28:21.487Z,51.40
2018-12-01T05:30:49.723Z,53.80
2018-12-01T05:33:17.974Z,50.23
2018-12-01T05:35:46.251Z,51.48
2018-12-01T05:38:14.239Z,53.17
2018-12-01T05:40:42.206Z,49.80
2018-12-01T05:43:10.199Z,50.95
2018-12-01T05:45:38.947Z,55.85
2018-12-01T05:48:06.936Z,52.88
2018-12-01T05:50:34.869Z,53.95
2018-12-01T05:53:02.921Z,56.60
2018-12-01T05:55:31.858Z,53.28
2018-12-01T05:58:01.227Z,53.15
2018-12-01T06:00:29.199Z,50.28
2018-12-01T06:02:57.199Z,54.25
2018-12-01T06:05:26.381Z,54.63
2018-12-01T06:07:54.322Z,54.10
2018-12-01T06:10:22.675Z,54.85
2018-12-01T06:12:51.997Z,51.98
2018-12-01T06:15:20.468Z,54.77
2018-12-01T06:17:49.413Z,53.05
2018-12-01T06:20:21.672Z,49.88
2018-12-01T06:22:50.040Z,50.08
2018-12-01T06:25:19.368Z,51.13
2018-12-01T06:27:50.378Z,50.10
2018-12-01T06:30:19.095Z,51.98
2018-12-01T06:32:48.307Z,52.50
2018-12-01T06:35:16.443Z,53.17
2018-12-01T06:37:44.709Z,55.52
2018-12-01T06:40:17.931Z,58.08
2018-12-01T06:42:46.057Z,59.03
2018-12-01T06:45:14.928Z,55.75
2018-12-01T06:47:42.959Z,58.60
2018-12-01T06:50:16.999Z,58.28
2018-12-01T06:52:45.294Z,58.33
2018-12-01T06:55:13.969Z,66.55
2018-12-01T06:57:44.965Z,58.90
2018-12-01T07:00:15.730Z,60.30
2018-12-01T07:02:44.766Z,60.45
2018-12-01T07:05:14.843Z,61.00
2018-12-01T07:07:43.263Z,65.97
2018-12-01T07:24:33.527Z,64.60
2018-12-01T07:27:01.476Z,72.00
2018-12-01T07:29:29.715Z,66.20
2018-12-01T07:31:57.956Z,68.40
2018-12-01T07:34:25.913Z,67.78
2018-12-01T07:36:54.103Z,75.05
2018-12-01T07:39:22.415Z,88.72
2018-12-01T07:41:50.627Z,74.92
2018-12-01T07:44:18.888Z,73.40
2018-12-01T07:46:47.218Z,84.40
2018-12-01T07:49:15.156Z,78.52
2018-12-01T07:51:43.130Z,82.20
2018-12-01T07:54:11.176Z,80.55
2018-12-01T07:56:39.524Z,83.20
2018-12-01T07:59:07.491Z,85.85
2018-12-01T08:01:35.646Z,80.92
2018-12-01T08:04:04.124Z,85.07
2018-12-01T08:06:32.172Z,87.75
2018-12-01T08:09:00.426Z,83.60
2018-12-01T08:11:28.709Z,93.72
2018-12-01T08:13:56.663Z,100.90
2018-12-01T08:16:24.627Z,96.50
2018-12-01T08:18:52.699Z,109.48
2018-12-01T08:21:21.067Z,90.32
2018-12-01T08:23:49.328Z,100.00
2018-12-01T08:26:19.452Z,96.92
2018-12-01T08:28:47.554Z,100.22
2018-12-01T08:31:15.751Z,105.67
2018-12-01T08:33:44.039Z,102.32
2018-12-01T08:36:12.380Z,102.50
2018-12-01T08:38:40.619Z,101.70
2018-12-01T08:41:08.841Z,92.97
2018-12-01T08:46:13.112Z,97.50
2018-12-01T08:48:46.933Z,83.65
2018-12-01T08:51:16.861Z,82.50
2018-12-01T08:54:02.772Z,80.85
2018-12-01T08:56:32.935Z,80.83
2018-12-01T08:59:04.216Z,85.62
2018-12-01T09:01:34.843Z,83.50
2018-12-01T09:04:03.423Z,87.42
2018-12-01T09:06:37.360Z,82.40
2018-12-01T09:09:08.687Z,83.45
2018-12-01T09:14:24.004Z,80.70
2018-12-01T09:17:14.481Z,84.10
2018-12-01T09:19:49.038Z,83.58
2018-12-01T09:22:27.821Z,86.12
2018-12-01T09:24:58.063Z,84.30
2018-12-01T09:27:28.543Z,83.07
2018-12-01T09:29:57.831Z,88.58
2018-12-01T09:32:28.991Z,90.15
2018-12-01T09:34:59.336Z,92.55
2018-12-01T09:37:31.401Z,88.37
2018-12-01T09:40:06.920Z,90.20
2018-12-01T09:42:37.947Z,92.10
2018-12-01T09:45:11.382Z,86.37
2018-12-01T09:47:53.749Z,79.90
2018-12-01T09:50:24.095Z,73.40
2018-12-01T09:52:56.531Z,73.05
2018-12-01T09:55:30.103Z,71.55
2018-12-01T09:58:01.695Z,71.75
2018-12-01T10:00:33.928Z,71.60
2018-12-01T10:03:07.476Z,74.15
2018-12-01T10:05:41.267Z,75.30
2018-12-01T10:08:09.775Z,75.03
2018-12-01T10:10:43.603Z,63.10
2018-12-01T10:13:14.476Z,67.50
2018-12-01T10:15:44.981Z,61.95
2018-12-01T10:18:16.554Z,56.55
2018-12-01T10:20:47.873Z,58.38
2018-12-01T10:23:21.013Z,53.42
2018-12-01T10:25:49.909Z,64.22
2018-12-01T10:28:20.874Z,66.02
2018-12-01T10:30:53.793Z,69.17
2018-12-01T10:33:24.258Z,65.80
2018-12-01T10:35:54.773Z,66.37
2018-12-01T10:38:23.423Z,70.75
2018-12-01T10:40:54.714Z,68.15
2018-12-01T10:43:25.342Z,57.62
2018-12-01T10:45:55.775Z,64.30
2018-12-01T10:48:26.964Z,64.95
2018-12-01T10:50:57.710Z,69.45
2018-12-01T10:53:28.688Z,77.62
2018-12-01T10:55:59.815Z,72.20
2018-12-01T10:58:30.352Z,60.60
2018-12-01T11:01:06.379Z,67.37
2018-12-01T11:03:44.873Z,64.45
2018-12-01T11:06:16.315Z,64.82
2018-12-01T11:08:46.475Z,68.72
2018-12-01T11:11:17.127Z,70.97
2018-12-01T11:13:46.943Z,75.80
2018-12-01T11:16:17.773Z,71.07
2018-12-01T11:18:47.976Z,67.08
2018-12-01T11:21:19.160Z,68.92
2018-12-01T11:23:48.999Z,70.25
2018-12-01T11:26:21.360Z,67.60
2018-12-01T11:28:53.413Z,68.22
2018-12-01T11:31:23.269Z,71.67
2018-12-01T11:33:53.716Z,73.90
2018-12-01T11:36:26.228Z,69.35
2018-12-01T11:38:55.940Z,65.70
2018-12-01T11:41:26.392Z,68.57
2018-12-01T11:43:57.128Z,63.23
2018-12-01T11:46:29.707Z,65.85
2018-12-01T11:49:01.304Z,68.75
2018-12-01T11:51:32.296Z,65.00
2018-12-01T11:54:02.492Z,64.32
2018-12-01T11:56:33.183Z,59.95
2018-12-01T11:59:08.699Z,63.38
2018-12-01T12:01:39.485Z,63.28
2018-12-01T12:04:10.001Z,67.35
2018-12-01T12:06:40.509Z,66.28
2018-12-01T12:09:11.000Z,63.52
2018-12-01T12:11:41.536Z,64.67
2018-12-01T12:14:12.825Z,64.92
2018-12-01T12:16:42.303Z,65.37
2018-12-01T12:19:12.740Z,71.37
2018-12-01T12:21:42.753Z,93.55
2018-12-01T12:24:13.396Z,80.38
2018-12-01T12:26:42.256Z,81.42
2018-12-01T12:29:11.372Z,70.92
2018-12-01T12:31:41.806Z,73.42
2018-12-01T12:34:13.759Z,70.37
2018-12-01T12:36:47.395Z,83.22
2018-12-01T12:39:19.642Z,87.50
2018-12-01T12:41:48.577Z,74.77
2018-12-01T12:44:18.406Z,71.95
2018-12-01T12:46:48.116Z,76.20
2018-12-01T12:49:18.465Z,79.03
2018-12-01T12:51:48.093Z,84.45
2018-12-01T12:54:25.324Z,87.00
2018-12-01T12:56:56.724Z,79.82
2018-12-01T12:59:33.733Z,77.72
2018-12-01T13:02:03.686Z,76.62
2018-12-01T13:04:34.686Z,76.10
2018-12-01T13:07:04.663Z,79.77
2018-12-01T13:09:39.507Z,79.95
2018-12-01T13:12:08.428Z,74.40
2018-12-01T13:14:41.505Z,81.02
2018-12-01T13:17:12.089Z,77.47
2018-12-01T13:19:41.960Z,81.92
2018-12-01T13:22:17.420Z,89.77
2018-12-01T13:24:48.272Z,84.15
2018-12-01T13:27:18.178Z,83.00
2018-12-01T13:29:47.966Z,85.83
2018-12-01T13:32:20.218Z,100.30
2018-12-01T13:34:55.465Z,97.67
2018-12-01T13:37:34.538Z,96.15
2018-12-01T13:40:12.748Z,96.67
2018-12-01T13:42:47.228Z,103.00
2018-12-01T13:45:27.855Z,97.65
2018-12-01T13:47:58.548Z,94.50
2018-12-01T13:50:30.947Z,104.25
2018-12-01T13:53:12.261Z,100.12
2018-12-01T13:58:29.400Z,110.50
2018-12-01T14:01:03.167Z,116.88
2018-12-01T14:03:38.309Z,97.50
2018-12-01T14:06:11.432Z,106.20
2018-12-01T14:08:46.169Z,95.55
2018-12-01T14:11:30.935Z,100.35
2018-12-01T14:14:03.459Z,102.20
2018-12-01T14:16:36.207Z,103.70
2018-12-01T14:19:06.660Z,106.30
2018-12-01T14:21:41.206Z,102.10
2018-12-01T14:24:12.715Z,104.23
2018-12-01T14:26:45.906Z,104.07
2018-12-01T14:29:17.765Z,106.72
2018-12-01T14:32:10.253Z,99.37
2018-12-01T14:34:41.514Z,105.63
2018-12-01T14:37:15.895Z,109.72
2018-12-01T14:39:47.189Z,113.28
2018-12-01T14:42:18.058Z,111.10
2018-12-01T14:44:54.015Z,118.33
2018-12-01T14:47:24.448Z,134.78
2018-12-01T14:49:55.976Z,133.82
2018-12-01T14:52:26.200Z,155.72
2018-12-01T14:54:58.617Z,158.35
2018-12-01T14:57:30.365Z,137.40
2018-12-01T14:59:59.597Z,123.02
2018-12-01T15:02:31.484Z,121.15
2018-12-01T15:05:01.216Z,115.25
2018-12-01T15:07:32.694Z,117.50
2018-12-01T15:10:01.933Z,115.67
2018-12-01T15:12:33.769Z,105.58
2018-12-01T15:15:03.832Z,115.70
2018-12-01T15:17:34.870Z,140.92
2018-12-01T15:20:09.340Z,156.45
2018-12-01T15:22:38.768Z,149.02
2018-12-01T15:25:13.070Z,155.93
2018-12-01T15:27:43.126Z,142.50
2018-12-01T15:30:19.363Z,152.60
2018-12-01T15:33:01.451Z,142.75
2018-12-01T15:35:35.054Z,142.98
2018-12-01T15:38:07.224Z,140.57
2018-12-01T15:40:37.490Z,141.15
2018-12-01T15:43:07.341Z,138.57
2018-12-01T15:45:38.183Z,146.77
2018-12-01T15:48:09.080Z,137.25
2018-12-01T15:50:39.599Z,139.75
2018-12-01T15:53:20.414Z,124.87
2018-12-01T15:55:51.103Z,132.65
2018-12-01T15:58:21.404Z,126.15
2018-12-01T16:00:52.292Z,112.88
2018-12-01T16:03:23.637Z,108.20
2018-12-01T16:05:56.348Z,100.90
2018-12-01T16:08:29.739Z,99.65
2018-12-01T16:11:02.944Z,101.45
2018-12-01T16:13:33.110Z,103.95
2018-12-01T16:16:08.619Z,96.72
2018-12-01T16:18:40.471Z,97.78
2018-12-01T16:21:11.694Z,88.17
2018-12-01T16:23:41.995Z,107.15
2018-12-01T16:26:11.342Z,112.60
2018-12-01T16:28:41.947Z,112.05
2018-12-01T16:31:11.953Z,111.47
2018-12-01T16:33:42.447Z,113.40
2018-12-01T16:36:13.544Z,107.90
2018-12-01T16:38:43.108Z,109.20
2018-12-01T16:41:21.091Z,119.20
2018-12-01T16:43:51.307Z,114.47
2018-12-01T16:46:20.427Z,115.67
2018-12-01T16:48:52.082Z,118.60
2018-12-01T16:51:21.835Z,114.25
2018-12-01T16:53:53.637Z,115.28
2018-12-01T16:56:23.276Z,115.57
2018-12-01T16:58:53.786Z,114.42
2018-12-01T17:01:23.926Z,122.55
2018-12-01T17:03:52.689Z,114.22
2018-12-01T17:06:21.942Z,123.28
2018-12-01T17:08:54.469Z,117.37
2018-12-01T17:11:25.964Z,122.78
2018-12-01T17:13:55.596Z,127.95
2018-12-01T17:16:26.569Z,118.90
2018-12-01T17:18:56.772Z,120.75
2018-12-01T17:21:27.336Z,122.02
2018-12-01T17:23:57.375Z,119.33
2018-12-01T17:26:26.618Z,117.87
2018-12-01T17:28:56.059Z,135.00
2018-12-01T17:31:27.859Z,129.23
2018-12-01T17:33:58.684Z,129.00
2018-12-01T17:36:28.547Z,122.67
2018-12-01T17:38:59.235Z,117.28
2018-12-01T17:41:32.332Z,114.22
2018-12-01T17:44:17.368Z,117.10
2018-12-01T17:46:47.849Z,119.35
2018-12-01T17:49:17.264Z,125.58
2018-12-01T17:51:47.318Z,124.87
2018-12-01T17:54:19.812Z,136.25
2018-12-01T17:58:19.334Z,129.42
2018-12-01T18:00:53.158Z,130.97
2018-12-01T18:03:22.474Z,133.57
2018-12-01T18:05:52.857Z,156.47
2018-12-01T18:08:22.991Z,127.87
2018-12-01T18:10:55.720Z,134.70
2018-12-01T18:13:26.391Z,125.67
2018-12-01T18:15:56.114Z,118.77
2018-12-01T18:18:25.284Z,114.57
2018-12-01T18:21:02.919Z,114.57
2018-12-01T18:23:33.490Z,111.85
2018-12-01T18:26:03.783Z,118.72
2018-12-01T18:28:38.578Z,116.22
2018-12-01T18:31:12.759Z,109.83
2018-12-01T18:33:45.919Z,104.50
2018-12-01T18:36:16.804Z,104.55
2018-12-01T18:38:50.792Z,106.70
2018-12-01T18:41:21.557Z,111.40
2018-12-01T18:43:52.109Z,116.88
2018-12-01T18:46:20.871Z,105.92
2018-12-01T18:48:49.279Z,100.10
2018-12-01T18:51:19.927Z,98.25
2018-12-01T18:53:49.929Z,101.25
2018-12-01T18:56:20.336Z,98.42
2018-12-01T18:58:50.919Z,92.60
2018-12-01T19:01:23.442Z,94.72
2018-12-01T19:03:52.078Z,89.22
2018-12-01T19:06:22.051Z,105.30
2018-12-01T19:08:55.197Z,124.15
2018-12-01T19:11:26.687Z,136.77
2018-12-01T19:13:56.872Z,145.75
2018-12-01T19:16:27.288Z,153.60
2018-12-01T19:18:55.811Z,148.00
2018-12-01T19:21:25.736Z,141.73
2018-12-01T19:24:01.306Z,148.35
2018-12-01T19:26:34.592Z,149.07
2018-12-01T19:29:06.169Z,148.53
2018-12-01T19:31:36.831Z,146.95
2018-12-01T19:34:05.344Z,142.47
2018-12-01T19:36:35.513Z,133.55
2018-12-01T19:39:07.668Z,126.05
2018-12-01T19:41:38.191Z,124.53
2018-12-01T19:44:18.256Z,132.52
2018-12-01T19:46:48.642Z,132.93
2018-12-01T19:49:18.114Z,139.35
2018-12-01T19:51:48.116Z,142.25
2018-12-01T19:54:19.297Z,155.93
2018-12-01T19:56:50.012Z,162.43
2018-12-01T19:59:22.287Z,169.10
2018-12-01T20:01:52.767Z,151.05
2018-12-01T20:04:21.434Z,156.85
2018-12-01T20:06:50.744Z,162.47
2018-12-01T20:09:22.089Z,160.75
2018-12-01T20:11:51.446Z,158.20
2018-12-01T20:14:21.555Z,153.68
2018-12-01T20:16:55.022Z,145.60
2018-12-01T20:19:25.180Z,147.22
2018-12-01T20:21:54.730Z,134.87
2018-12-01T20:24:27.883Z,135.15
2018-12-01T20:26:58.321Z,141.95
2018-12-01T20:29:28.679Z,142.55
2018-12-01T20:31:57.915Z,150.10
2018-12-01T20:34:28.017Z,143.75
2018-12-01T20:37:00.490Z,151.00
2018-12-01T20:39:45.041Z,145.60
2018-12-01T20:42:17.048Z,146.40
2018-12-01T20:44:47.292Z,142.03
2018-12-01T20:47:20.779Z,141.03
2018-12-01T20:49:52.385Z,155.72
2018-12-01T20:52:22.497Z,161.10
2018-12-01T20:54:52.843Z,155.52
2018-12-01T20:57:24.784Z,155.25
2018-12-01T20:59:54.338Z,154.45
2018-12-01T21:02:24.606Z,153.78
2018-12-01T21:04:53.054Z,158.82
2018-12-01T21:07:21.766Z,158.27
2018-12-01T21:09:52.200Z,163.82
2018-12-01T21:12:22.393Z,176.65
2018-12-01T21:14:52.023Z,178.18
2018-12-01T21:17:21.870Z,176.53
2018-12-01T21:19:52.488Z,181.80
2018-12-01T21:22:23.030Z,189.52
2018-12-01T21:24:55.190Z,181.22
2018-12-01T21:27:25.214Z,186.75
2018-12-01T21:29:57.868Z,194.22
2018-12-01T21:32:26.031Z,195.75
2018-12-01T21:34:56.571Z,203.90
2018-12-01T21:37:26.911Z,197.30
2018-12-01T21:39:56.996Z,204.75
2018-12-01T21:42:26.536Z,210.82
2018-12-01T21:44:56.007Z,196.50
2018-12-01T21:47:26.963Z,193.05
2018-12-01T21:49:57.980Z,180.03
2018-12-01T21:52:28.579Z,177.80
2018-12-01T21:54:56.705Z,179.23
2018-12-01T21:57:27.732Z,178.90
2018-12-01T21:59:56.343Z,176.02
2018-12-01T22:02:30.247Z,174.62
2018-12-01T22:04:59.217Z,175.10
2018-12-01T22:07:29.896Z,179.03
2018-12-01T22:09:59.615Z,165.47
2018-12-01T22:12:28.251Z,163.95
2018-12-01T22:14:58.428Z,166.15
2018-12-01T22:17:28.403Z,164.20
2018-12-01T22:19:58.392Z,157.52
2018-12-01T22:22:28.038Z,162.90
2018-12-01T22:24:58.699Z,168.78
2018-12-01T22:27:28.456Z,161.57
2018-12-01T22:29:56.776Z,167.10
2018-12-01T22:32:26.920Z,163.35
2018-12-01T22:34:57.601Z,170.60
2018-12-01T22:37:27.960Z,165.10
2018-12-01T22:39:58.324Z,168.00
2018-12-01T22:42:30.467Z,174.90
2018-12-01T22:44:59.167Z,176.00
2018-12-01T22:47:29.305Z,187.27
2018-12-01T22:50:02.304Z,191.45
2018-12-01T22:52:30.679Z,189.55
2018-12-01T22:55:02.720Z,183.97
2018-12-01T22:57:31.160Z,220.48
2018-12-01T23:00:01.135Z,221.50
2018-12-01T23:02:30.102Z,224.37
2018-12-01T23:04:58.070Z,230.03
2018-12-01T23:07:26.000Z,234.72
2018-12-01T23:09:54.029Z,255.60
2018-12-01T23:12:22.043Z,257.30
2018-12-01T23:14:50.082Z,260.60
2018-12-01T23:17:18.024Z,246.43
2018-12-01T23:19:46.426Z,241.12
2018-12-01T23:22:14.410Z,233.80
2018-12-01T23:24:42.396Z,218.95
2018-12-01T23:27:10.420Z,222.00
2018-12-01T23:29:38.346Z,230.55
2018-12-01T23:32:06.507Z,216.10
2018-12-01T23:34:34.493Z,212.35
2018-12-01T23:37:03.040Z,192.03
2018-12-01T23:39:31.336Z,183.82
2018-12-01T23:41:59.328Z,179.35
2018-12-01T23:44:28.652Z,180.87
2018-12-01T23:46:56.604Z,180.60
2018-12-01T23:49:24.769Z,171.43
2018-12-01T23:51:52.787Z,173.10
2018-12-01T23:54:20.800Z,174.95
2018-12-01T23:56:48.811Z,177.95
2018-12-01T23:59:16.742Z,171.35
